Birdum, Australia
Current Conditions -  °F | °C
As of 5:00 PM on Monday 20 Oct 2014 (Local Time) from YPTN Reporting Station
Clear Clear  
Wind Chill: 99°   Ceiling: Unl
Heat Index: 99°   Visibility: 6mi
Dew Point: 39°   Wind: 13mph
Humidity: 13%   Direction: 130°SE
Pressure: 29.83"   Gusts: NA
Location:  15.65°S, 133.21°E
Report Text: YPTN 200800Z 13011KT CAVOK 37/04 Q1010
Loading
Personal Weather Stations






























Interactive Weather Map
Tropical Storm Tracking
New forecast layout! Learn more

10-Day Weather Forecast

Advertisements
Track Severe Weather on mobile